RJOARJOI

Guest
Details From RJOA - HIROSHIMA
To RJOI - IWAKUNI MCAS
Flight Number -
Tags generated
Created
Modified
Stats Distance 39 nm / 72 km
Max Altitude 3,500 ft / 1,067 m
Waypoints 3
Social Downloads 1
Likes 0
Share VATSIM

Download

Looking for another format? Having issues loading an existing format? Contact us
Advertisement - Login to hide

Notes

Basic altitude profile: - Ascent Rate: 2500ft/min - Ascent Speed: 250kts - Cruise Altitude: 35000ft - Cruise Speed: 420kts - Descent Rate: 1500ft/min - Descent Speed: 250kts Options: - Use NATs: yes - Use PACOTS: yes - Use low airways: yes - Use high airways: yes

Route

RJOA ONDOC RJOI

ID Type Via Altitude Latitude Longitude Leg Dist Tot Dist Heading (true) Name
O RJOA APT - 0 ft / 0 m 34.43603˚ 132.91944˚ - 0 nm - HIROSHIMA
ONDOC FIX - 3,500 ft / 1,067 m 34.20938˚ 132.55553˚ 22 nm 22 nm 233° / 233° -
O RJOI APT - 0 ft / 0 m 34.14252˚ 132.23633˚ 16 nm 38 nm 256° / 256° IWAKUNI MCAS

Altitude Profile

Advertisement - Login to hide

RJOA

Details ICAO RJOA (HIJ)
Name HIROSHIMA
Region Japan
Timezone Asia/Tokyo (UTC+9.0)
Stats Elevation 1,088 ft / 332 m (AMSL)
Location 34.436025° 132.919444°
Runways 1
Magnetic Variation 7.728° W

METAR

RJOA 270500Z 21005KT 150V270 9999 FEW035 BKN/// 25/13 Q1011

Decode

TAF

TAF RJOA 262306Z 2700/2806 19006KT 9999 FEW030 BECMG 2721/2800 13004KT

Decode

Departure Runways

ID Width Length Bearing (true) Bearing (mag) Surface Threshold Offset Overrun Length
10 200 ft / 61 m 9,823 ft / 2,994 m 89.99° 97.72° Asphalt 0 ft / 0 m 210 ft / 64 m
28 200 ft / 61 m 9,823 ft / 2,994 m 270.01° 277.74° Asphalt 0 ft / 0 m 210 ft / 64 m

RJOI

Details ICAO RJOI
Name IWAKUNI MCAS
Region Japan
Timezone Asia/Tokyo (UTC+9.0)
Stats Elevation 7 ft / 2 m (AMSL)
Location 34.142515° 132.236335°
Runways 2
Magnetic Variation 7.653° W

METAR

RJOI 270455Z 07005KT 9999 BKN240 24/16 A2984 RMK SLP106 T02390156

Decode

TAF

TAF RJOI 2621/2721 VRB05KT 9999 FEW008 FEW070 QNH2986INS FM270100 12005KT 9999 FEW030 SCT240 QNH2987INS FM270300 17008KT 9999 SCT240 QNH2979INS FM271100 VRB05KT 9999 FEW025 BKN180 QNH2985INS FM271500 31005KT 9999 SCT025 BKN150 QNH2983INS T26/2706Z T17/2720Z

Decode

Destination Runways

ID Width Length Bearing (true) Bearing (mag) Surface Threshold Offset Overrun Length
02 150 ft / 46 m 8,019 ft / 2,444 m 9.19° 16.84° Concrete 0 ft / 0 m 1,000 ft / 305 m
02R 150 ft / 46 m 1,202 ft / 366 m 9.29° 16.94° Concrete 0 ft / 0 m 0 ft / 0 m
20 150 ft / 46 m 8,019 ft / 2,444 m 189.19° 196.84° Concrete 0 ft / 0 m 1,000 ft / 305 m
20L 150 ft / 46 m 1,202 ft / 366 m 189.29° 196.94° Concrete 0 ft / 0 m 0 ft / 0 m